sensor_id;sensor_type;location;lat;lon;timestamp;temperature;humidity
52034;DHT22;38045;52.988;6.536;2023-05-08T00:01:25;12.60;99.90
52034;DHT22;38045;52.988;6.536;2023-05-08T00:03:51;12.60;99.90
52034;DHT22;38045;52.988;6.536;2023-05-08T00:06:17;12.60;99.90
52034;DHT22;38045;52.988;6.536;2023-05-08T00:08:42;12.60;99.90
52034;DHT22;38045;52.988;6.536;2023-05-08T00:11:08;12.60;99.90
52034;DHT22;38045;52.988;6.536;2023-05-08T00:13:34;12.60;99.90
52034;DHT22;38045;52.988;6.536;2023-05-08T00:15:59;12.40;99.90
52034;DHT22;38045;52.988;6.536;2023-05-08T00:18:25;12.50;99.90
52034;DHT22;38045;52.988;6.536;2023-05-08T00:20:51;12.50;99.90
52034;DHT22;38045;52.988;6.536;2023-05-08T00:23:16;12.50;99.90
52034;DHT22;38045;52.988;6.536;2023-05-08T00:25:42;12.50;99.90
52034;DHT22;38045;52.988;6.536;2023-05-08T00:28:07;12.50;99.90
52034;DHT22;38045;52.988;6.536;2023-05-08T00:30:33;12.40;99.90
52034;DHT22;38045;52.988;6.536;2023-05-08T00:32:58;12.40;99.90
52034;DHT22;38045;52.988;6.536;2023-05-08T00:35:24;12.50;99.90
52034;DHT22;38045;52.988;6.536;2023-05-08T00:37:50;12.50;99.90
52034;DHT22;38045;52.988;6.536;2023-05-08T00:40:15;12.40;99.90
52034;DHT22;38045;52.988;6.536;2023-05-08T00:42:41;12.40;99.90
52034;DHT22;38045;52.988;6.536;2023-05-08T00:45:07;12.50;99.90
52034;DHT22;38045;52.988;6.536;2023-05-08T00:47:33;12.50;99.90
52034;DHT22;38045;52.988;6.536;2023-05-08T00:49:59;12.50;99.90
52034;DHT22;38045;52.988;6.536;2023-05-08T00:52:27;12.50;99.90
52034;DHT22;38045;52.988;6.536;2023-05-08T00:54:54;12.50;99.90
52034;DHT22;38045;52.988;6.536;2023-05-08T00:57:20;12.50;99.90
52034;DHT22;38045;52.988;6.536;2023-05-08T00:59:47;12.50;99.90
52034;DHT22;38045;52.988;6.536;2023-05-08T01:02:13;12.50;99.90
52034;DHT22;38045;52.988;6.536;2023-05-08T01:04:39;12.40;99.90
52034;DHT22;38045;52.988;6.536;2023-05-08T01:07:06;12.30;99.90
52034;DHT22;38045;52.988;6.536;2023-05-08T01:09:32;12.20;99.90
52034;DHT22;38045;52.988;6.536;2023-05-08T01:12:16;12.20;99.90
52034;DHT22;38045;52.988;6.536;2023-05-08T01:24:13;11.90;99.90
52034;DHT22;38045;52.988;6.536;2023-05-08T01:27:21;11.80;99.90
52034;DHT22;38045;52.988;6.536;2023-05-08T01:32:38;11.80;99.90
52034;DHT22;38045;52.988;6.536;2023-05-08T01:35:14;11.70;99.90
52034;DHT22;38045;52.988;6.536;2023-05-08T01:38:26;11.80;99.90
52034;DHT22;38045;52.988;6.536;2023-05-08T01:41:02;11.70;99.90
52034;DHT22;38045;52.988;6.536;2023-05-08T01:46:11;11.60;99.90
52034;DHT22;38045;52.988;6.536;2023-05-08T01:48:50;11.60;99.90
52034;DHT22;38045;52.988;6.536;2023-05-08T01:51:21;11.50;99.90
52034;DHT22;38045;52.988;6.536;2023-05-08T01:53:51;11.50;99.90
52034;DHT22;38045;52.988;6.536;2023-05-08T01:56:21;11.50;99.90
52034;DHT22;38045;52.988;6.536;2023-05-08T01:58:50;11.50;99.90
52034;DHT22;38045;52.988;6.536;2023-05-08T02:01:19;11.40;99.90
52034;DHT22;38045;52.988;6.536;2023-05-08T02:03:47;11.40;99.90
52034;DHT22;38045;52.988;6.536;2023-05-08T02:06:14;11.30;99.90
52034;DHT22;38045;52.988;6.536;2023-05-08T02:08:43;11.30;99.90
52034;DHT22;38045;52.988;6.536;2023-05-08T02:11:10;11.20;99.90
52034;DHT22;38045;52.988;6.536;2023-05-08T02:13:38;11.20;99.90
52034;DHT22;38045;52.988;6.536;2023-05-08T02:16:06;11.30;99.90
52034;DHT22;38045;52.988;6.536;2023-05-08T02:18:33;11.30;99.90
52034;DHT22;38045;52.988;6.536;2023-05-08T02:21:02;11.30;99.90
52034;DHT22;38045;52.988;6.536;2023-05-08T02:23:29;11.90;99.90
52034;DHT22;38045;52.988;6.536;2023-05-08T02:25:56;11.40;99.90
52034;DHT22;38045;52.988;6.536;2023-05-08T02:28:22;11.30;99.90
52034;DHT22;38045;52.988;6.536;2023-05-08T02:30:49;11.30;99.90
52034;DHT22;38045;52.988;6.536;2023-05-08T02:33:16;11.30;99.90
52034;DHT22;38045;52.988;6.536;2023-05-08T02:35:44;11.30;99.90
52034;DHT22;38045;52.988;6.536;2023-05-08T02:38:13;11.30;99.90
52034;DHT22;38045;52.988;6.536;2023-05-08T02:40:45;11.30;99.90
52034;DHT22;38045;52.988;6.536;2023-05-08T02:43:11;11.20;99.90
52034;DHT22;38045;52.988;6.536;2023-05-08T02:45:45;11.10;99.90
52034;DHT22;38045;52.988;6.536;2023-05-08T02:48:27;11.00;99.90
52034;DHT22;38045;52.988;6.536;2023-05-08T02:51:01;11.00;99.90
52034;DHT22;38045;52.988;6.536;2023-05-08T02:53:42;11.00;99.90
52034;DHT22;38045;52.988;6.536;2023-05-08T02:56:17;11.00;99.90
52034;DHT22;38045;52.988;6.536;2023-05-08T02:58:54;11.00;99.90
52034;DHT22;38045;52.988;6.536;2023-05-08T03:01:32;11.00;99.90
52034;DHT22;38045;52.988;6.536;2023-05-08T03:04:06;11.00;99.90
52034;DHT22;38045;52.988;6.536;2023-05-08T03:06:37;11.00;99.90
52034;DHT22;38045;52.988;6.536;2023-05-08T03:09:05;11.00;99.90
52034;DHT22;38045;52.988;6.536;2023-05-08T03:11:41;10.90;99.90
52034;DHT22;38045;52.988;6.536;2023-05-08T03:14:10;10.90;99.90
52034;DHT22;38045;52.988;6.536;2023-05-08T03:16:37;10.80;99.90
52034;DHT22;38045;52.988;6.536;2023-05-08T03:19:06;10.80;99.90
52034;DHT22;38045;52.988;6.536;2023-05-08T03:21:35;10.80;99.90
52034;DHT22;38045;52.988;6.536;2023-05-08T03:24:03;10.80;99.90
52034;DHT22;38045;52.988;6.536;2023-05-08T03:26:29;10.80;99.90
52034;DHT22;38045;52.988;6.536;2023-05-08T03:28:56;10.80;99.90
52034;DHT22;38045;52.988;6.536;2023-05-08T03:31:23;10.80;99.90
52034;DHT22;38045;52.988;6.536;2023-05-08T03:33:52;10.80;99.90
52034;DHT22;38045;52.988;6.536;2023-05-08T03:36:18;10.80;99.90
52034;DHT22;38045;52.988;6.536;2023-05-08T03:38:44;10.80;99.90
52034;DHT22;38045;52.988;6.536;2023-05-08T03:41:11;10.90;99.90
52034;DHT22;38045;52.988;6.536;2023-05-08T03:43:37;10.80;99.90
52034;DHT22;38045;52.988;6.536;2023-05-08T03:46:06;10.80;99.90
52034;DHT22;38045;52.988;6.536;2023-05-08T03:48:33;10.70;99.90
52034;DHT22;38045;52.988;6.536;2023-05-08T03:51:02;10.70;99.90
52034;DHT22;38045;52.988;6.536;2023-05-08T03:53:29;10.70;99.90
52034;DHT22;38045;52.988;6.536;2023-05-08T03:55:56;10.60;99.90
52034;DHT22;38045;52.988;6.536;2023-05-08T04:06:06;10.60;99.90
52034;DHT22;38045;52.988;6.536;2023-05-08T04:08:41;10.60;99.90
52034;DHT22;38045;52.988;6.536;2023-05-08T04:11:17;10.50;99.90
52034;DHT22;38045;52.988;6.536;2023-05-08T04:13:48;10.50;99.90
52034;DHT22;38045;52.988;6.536;2023-05-08T04:16:23;10.40;99.90
52034;DHT22;38045;52.988;6.536;2023-05-08T04:18:58;10.40;99.90
52034;DHT22;38045;52.988;6.536;2023-05-08T04:21:24;10.40;99.90
52034;DHT22;38045;52.988;6.536;2023-05-08T04:23:51;10.50;99.90
52034;DHT22;38045;52.988;6.536;2023-05-08T04:26:20;10.50;99.90
52034;DHT22;38045;52.988;6.536;2023-05-08T04:28:47;10.50;99.90
52034;DHT22;38045;52.988;6.536;2023-05-08T04:31:16;10.40;99.90
52034;DHT22;38045;52.988;6.536;2023-05-08T04:33:43;10.50;99.90
52034;DHT22;38045;52.988;6.536;2023-05-08T04:36:13;10.50;99.90
52034;DHT22;38045;52.988;6.536;2023-05-08T04:38:39;10.50;99.90
52034;DHT22;38045;52.988;6.536;2023-05-08T04:41:05;10.50;99.90
52034;DHT22;38045;52.988;6.536;2023-05-08T04:43:31;10.50;99.90
52034;DHT22;38045;52.988;6.536;2023-05-08T04:45:58;10.50;99.90
52034;DHT22;38045;52.988;6.536;2023-05-08T04:48:24;10.50;99.90
52034;DHT22;38045;52.988;6.536;2023-05-08T04:50:50;10.50;99.90
52034;DHT22;38045;52.988;6.536;2023-05-08T04:53:15;10.60;99.90
52034;DHT22;38045;52.988;6.536;2023-05-08T04:55:41;10.60;99.90
52034;DHT22;38045;52.988;6.536;2023-05-08T04:58:06;10.70;99.90
52034;DHT22;38045;52.988;6.536;2023-05-08T05:00:34;10.80;99.90
52034;DHT22;38045;52.988;6.536;2023-05-08T05:03:00;10.80;99.90
52034;DHT22;38045;52.988;6.536;2023-05-08T05:05:26;10.80;99.90
52034;DHT22;38045;52.988;6.536;2023-05-08T05:07:51;10.70;99.90
52034;DHT22;38045;52.988;6.536;2023-05-08T05:10:17;10.70;99.90
52034;DHT22;38045;52.988;6.536;2023-05-08T05:12:43;10.80;99.90
52034;DHT22;38045;52.988;6.536;2023-05-08T05:15:09;10.80;99.90
52034;DHT22;38045;52.988;6.536;2023-05-08T05:17:34;10.90;99.90
52034;DHT22;38045;52.988;6.536;2023-05-08T05:20:00;10.90;99.90
52034;DHT22;38045;52.988;6.536;2023-05-08T05:22:25;10.90;99.90
52034;DHT22;38045;52.988;6.536;2023-05-08T05:24:53;10.90;99.90
52034;DHT22;38045;52.988;6.536;2023-05-08T05:27:18;11.00;99.90
52034;DHT22;38045;52.988;6.536;2023-05-08T05:29:44;11.00;99.90
52034;DHT22;38045;52.988;6.536;2023-05-08T05:32:10;11.10;99.90
52034;DHT22;38045;52.988;6.536;2023-05-08T05:34:36;11.20;99.90
52034;DHT22;38045;52.988;6.536;2023-05-08T05:37:02;11.20;99.90
52034;DHT22;38045;52.988;6.536;2023-05-08T05:39:27;11.30;99.90
52034;DHT22;38045;52.988;6.536;2023-05-08T05:41:53;11.40;99.90
52034;DHT22;38045;52.988;6.536;2023-05-08T05:44:19;11.40;99.90
52034;DHT22;38045;52.988;6.536;2023-05-08T05:46:44;11.50;99.90
52034;DHT22;38045;52.988;6.536;2023-05-08T05:49:10;11.60;99.90
52034;DHT22;38045;52.988;6.536;2023-05-08T05:51:36;11.60;99.90
52034;DHT22;38045;52.988;6.536;2023-05-08T05:54:02;11.60;99.90
52034;DHT22;38045;52.988;6.536;2023-05-08T05:56:27;11.70;99.90
52034;DHT22;38045;52.988;6.536;2023-05-08T05:58:53;11.70;99.90
52034;DHT22;38045;52.988;6.536;2023-05-08T06:01:19;11.70;99.90
52034;DHT22;38045;52.988;6.536;2023-05-08T06:03:45;11.80;99.90
52034;DHT22;38045;52.988;6.536;2023-05-08T06:06:10;11.90;99.90
52034;DHT22;38045;52.988;6.536;2023-05-08T06:08:36;11.90;99.90
52034;DHT22;38045;52.988;6.536;2023-05-08T06:11:02;12.00;99.90
52034;DHT22;38045;52.988;6.536;2023-05-08T06:13:28;12.10;99.90
52034;DHT22;38045;52.988;6.536;2023-05-08T06:15:54;12.20;99.90
52034;DHT22;38045;52.988;6.536;2023-05-08T06:18:22;12.30;99.90
52034;DHT22;38045;52.988;6.536;2023-05-08T06:20:48;12.50;99.90
52034;DHT22;38045;52.988;6.536;2023-05-08T06:23:13;12.50;99.90
52034;DHT22;38045;52.988;6.536;2023-05-08T06:25:39;12.70;99.90
52034;DHT22;38045;52.988;6.536;2023-05-08T06:28:05;12.80;99.90
52034;DHT22;38045;52.988;6.536;2023-05-08T06:30:33;12.70;99.90
52034;DHT22;38045;52.988;6.536;2023-05-08T06:32:58;12.80;99.90
52034;DHT22;38045;52.988;6.536;2023-05-08T06:35:24;13.00;99.90
52034;DHT22;38045;52.988;6.536;2023-05-08T06:37:50;13.10;99.90
52034;DHT22;38045;52.988;6.536;2023-05-08T06:40:15;13.20;99.90
52034;DHT22;38045;52.988;6.536;2023-05-08T06:42:41;13.30;99.90
52034;DHT22;38045;52.988;6.536;2023-05-08T06:45:08;13.40;99.90
52034;DHT22;38045;52.988;6.536;2023-05-08T06:47:33;13.30;99.90
52034;DHT22;38045;52.988;6.536;2023-05-08T06:49:59;13.30;99.90
52034;DHT22;38045;52.988;6.536;2023-05-08T06:52:25;13.40;99.90
52034;DHT22;38045;52.988;6.536;2023-05-08T06:54:51;13.30;99.90
52034;DHT22;38045;52.988;6.536;2023-05-08T06:57:16;13.40;99.90
52034;DHT22;38045;52.988;6.536;2023-05-08T06:59:42;13.40;99.90
52034;DHT22;38045;52.988;6.536;2023-05-08T07:02:08;13.30;99.90
52034;DHT22;38045;52.988;6.536;2023-05-08T07:04:36;13.40;99.90
52034;DHT22;38045;52.988;6.536;2023-05-08T07:07:02;13.50;99.90
52034;DHT22;38045;52.988;6.536;2023-05-08T07:09:28;13.50;99.90
52034;DHT22;38045;52.988;6.536;2023-05-08T07:11:53;13.50;99.90
52034;DHT22;38045;52.988;6.536;2023-05-08T07:14:19;13.50;99.90
52034;DHT22;38045;52.988;6.536;2023-05-08T07:16:44;13.50;99.90
52034;DHT22;38045;52.988;6.536;2023-05-08T07:19:10;13.50;99.90
52034;DHT22;38045;52.988;6.536;2023-05-08T07:21:36;13.60;99.90
52034;DHT22;38045;52.988;6.536;2023-05-08T07:24:03;13.70;99.90
52034;DHT22;38045;52.988;6.536;2023-05-08T07:26:28;13.70;99.90
52034;DHT22;38045;52.988;6.536;2023-05-08T07:28:54;13.80;99.90
52034;DHT22;38045;52.988;6.536;2023-05-08T07:31:20;13.90;99.90
52034;DHT22;38045;52.988;6.536;2023-05-08T07:33:46;13.80;99.90
52034;DHT22;38045;52.988;6.536;2023-05-08T07:36:12;13.90;99.90
52034;DHT22;38045;52.988;6.536;2023-05-08T07:38:37;13.90;99.90
52034;DHT22;38045;52.988;6.536;2023-05-08T07:41:03;14.00;99.90
52034;DHT22;38045;52.988;6.536;2023-05-08T07:43:30;14.10;99.90
52034;DHT22;38045;52.988;6.536;2023-05-08T07:45:56;14.20;99.90
52034;DHT22;38045;52.988;6.536;2023-05-08T07:48:21;14.20;99.90
52034;DHT22;38045;52.988;6.536;2023-05-08T07:50:51;14.30;99.90
52034;DHT22;38045;52.988;6.536;2023-05-08T07:53:16;14.40;99.90
52034;DHT22;38045;52.988;6.536;2023-05-08T07:55:42;14.50;99.90
52034;DHT22;38045;52.988;6.536;2023-05-08T07:58:08;14.50;99.90
52034;DHT22;38045;52.988;6.536;2023-05-08T08:00:33;14.60;99.90
52034;DHT22;38045;52.988;6.536;2023-05-08T08:02:59;14.60;99.90
52034;DHT22;38045;52.988;6.536;2023-05-08T08:05:25;14.70;99.90
52034;DHT22;38045;52.988;6.536;2023-05-08T08:07:50;14.90;99.90
52034;DHT22;38045;52.988;6.536;2023-05-08T08:10:16;15.10;99.90
52034;DHT22;38045;52.988;6.536;2023-05-08T08:12:42;15.00;99.90
52034;DHT22;38045;52.988;6.536;2023-05-08T08:15:07;15.10;99.90
52034;DHT22;38045;52.988;6.536;2023-05-08T08:17:33;15.20;99.90
52034;DHT22;38045;52.988;6.536;2023-05-08T08:19:59;15.30;99.90
52034;DHT22;38045;52.988;6.536;2023-05-08T08:22:25;15.40;99.90
52034;DHT22;38045;52.988;6.536;2023-05-08T08:24:51;15.60;99.90
52034;DHT22;38045;52.988;6.536;2023-05-08T08:27:18;15.80;99.90
52034;DHT22;38045;52.988;6.536;2023-05-08T08:29:44;15.90;99.90
52034;DHT22;38045;52.988;6.536;2023-05-08T08:32:09;16.00;99.90
52034;DHT22;38045;52.988;6.536;2023-05-08T08:34:35;16.20;99.90
52034;DHT22;38045;52.988;6.536;2023-05-08T08:37:04;16.60;99.90
52034;DHT22;38045;52.988;6.536;2023-05-08T08:39:33;16.80;99.90
52034;DHT22;38045;52.988;6.536;2023-05-08T08:41:59;17.10;99.90
52034;DHT22;38045;52.988;6.536;2023-05-08T08:44:24;17.30;99.90
52034;DHT22;38045;52.988;6.536;2023-05-08T08:46:51;17.40;99.90
52034;DHT22;38045;52.988;6.536;2023-05-08T08:49:33;17.30;99.90
52034;DHT22;38045;52.988;6.536;2023-05-08T08:52:06;17.40;99.90
52034;DHT22;38045;52.988;6.536;2023-05-08T08:54:36;17.30;99.90
52034;DHT22;38045;52.988;6.536;2023-05-08T08:57:05;17.40;99.90
52034;DHT22;38045;52.988;6.536;2023-05-08T08:59:33;17.60;99.90
52034;DHT22;38045;52.988;6.536;2023-05-08T09:02:06;17.60;99.90
52034;DHT22;38045;52.988;6.536;2023-05-08T09:04:33;17.80;99.90
52034;DHT22;38045;52.988;6.536;2023-05-08T09:06:59;17.80;99.90
52034;DHT22;38045;52.988;6.536;2023-05-08T09:09:25;17.90;99.90
52034;DHT22;38045;52.988;6.536;2023-05-08T09:11:53;18.00;99.90
52034;DHT22;38045;52.988;6.536;2023-05-08T09:14:18;17.80;99.90
52034;DHT22;38045;52.988;6.536;2023-05-08T09:16:44;17.90;99.90
52034;DHT22;38045;52.988;6.536;2023-05-08T09:19:13;18.00;99.90
52034;DHT22;38045;52.988;6.536;2023-05-08T09:21:39;18.00;99.90
52034;DHT22;38045;52.988;6.536;2023-05-08T09:24:05;18.30;99.90
52034;DHT22;38045;52.988;6.536;2023-05-08T09:26:36;18.40;99.90
52034;DHT22;38045;52.988;6.536;2023-05-08T09:29:18;18.40;99.90
52034;DHT22;38045;52.988;6.536;2023-05-08T09:31:47;18.50;99.90
52034;DHT22;38045;52.988;6.536;2023-05-08T09:34:27;18.60;99.90
52034;DHT22;38045;52.988;6.536;2023-05-08T09:36:54;18.70;99.90
52034;DHT22;38045;52.988;6.536;2023-05-08T09:39:24;18.70;99.90
52034;DHT22;38045;52.988;6.536;2023-05-08T09:41:57;18.90;99.90
52034;DHT22;38045;52.988;6.536;2023-05-08T09:44:23;19.20;99.90
52034;DHT22;38045;52.988;6.536;2023-05-08T09:46:48;19.30;99.90
52034;DHT22;38045;52.988;6.536;2023-05-08T09:49:18;19.40;99.90
52034;DHT22;38045;52.988;6.536;2023-05-08T09:51:53;19.40;99.90
52034;DHT22;38045;52.988;6.536;2023-05-08T09:54:19;19.50;99.90
52034;DHT22;38045;52.988;6.536;2023-05-08T09:56:45;19.60;99.90
52034;DHT22;38045;52.988;6.536;2023-05-08T09:59:27;19.70;99.90
52034;DHT22;38045;52.988;6.536;2023-05-08T10:01:54;19.80;99.90
52034;DHT22;38045;52.988;6.536;2023-05-08T10:04:33;20.10;99.90
52034;DHT22;38045;52.988;6.536;2023-05-08T10:07:00;20.10;99.90
52034;DHT22;38045;52.988;6.536;2023-05-08T10:09:26;20.10;99.90
52034;DHT22;38045;52.988;6.536;2023-05-08T10:11:52;20.10;99.90
52034;DHT22;38045;52.988;6.536;2023-05-08T10:14:19;19.90;99.90
52034;DHT22;38045;52.988;6.536;2023-05-08T10:16:46;20.00;99.90
52034;DHT22;38045;52.988;6.536;2023-05-08T10:19:21;20.30;99.90
52034;DHT22;38045;52.988;6.536;2023-05-08T10:21:48;20.60;99.90
52034;DHT22;38045;52.988;6.536;2023-05-08T10:24:17;20.80;99.90
52034;DHT22;38045;52.988;6.536;2023-05-08T10:26:51;20.80;99.90
52034;DHT22;38045;52.988;6.536;2023-05-08T10:29:20;20.80;99.90
52034;DHT22;38045;52.988;6.536;2023-05-08T10:31:45;21.10;99.90
52034;DHT22;38045;52.988;6.536;2023-05-08T10:34:18;21.30;99.90
52034;DHT22;38045;52.988;6.536;2023-05-08T10:36:46;21.30;99.90
52034;DHT22;38045;52.988;6.536;2023-05-08T10:39:13;21.30;99.90
52034;DHT22;38045;52.988;6.536;2023-05-08T10:41:41;21.40;99.90
52034;DHT22;38045;52.988;6.536;2023-05-08T10:44:08;21.60;99.90
52034;DHT22;38045;52.988;6.536;2023-05-08T10:46:51;21.60;99.90
52034;DHT22;38045;52.988;6.536;2023-05-08T10:49:42;21.50;99.90
52034;DHT22;38045;52.988;6.536;2023-05-08T10:52:31;21.40;99.90
52034;DHT22;38045;52.988;6.536;2023-05-08T10:57:29;21.40;99.90
52034;DHT22;38045;52.988;6.536;2023-05-08T10:59:55;21.60;99.90
52034;DHT22;38045;52.988;6.536;2023-05-08T11:02:27;21.80;99.90
52034;DHT22;38045;52.988;6.536;2023-05-08T11:05:13;22.10;99.90
52034;DHT22;38045;52.988;6.536;2023-05-08T11:07:55;22.40;99.90
52034;DHT22;38045;52.988;6.536;2023-05-08T11:10:29;22.30;99.90
52034;DHT22;38045;52.988;6.536;2023-05-08T11:12:56;22.40;99.90
52034;DHT22;38045;52.988;6.536;2023-05-08T11:15:39;22.40;99.90
52034;DHT22;38045;52.988;6.536;2023-05-08T11:18:08;22.30;99.90
52034;DHT22;38045;52.988;6.536;2023-05-08T11:20:57;22.10;99.90
52034;DHT22;38045;52.988;6.536;2023-05-08T11:28:31;22.00;99.90
52034;DHT22;38045;52.988;6.536;2023-05-08T11:31:02;22.00;99.90
52034;DHT22;38045;52.988;6.536;2023-05-08T11:33:33;22.10;99.90
52034;DHT22;38045;52.988;6.536;2023-05-08T11:36:15;22.30;99.90
52034;DHT22;38045;52.988;6.536;2023-05-08T11:38:43;22.60;99.90
52034;DHT22;38045;52.988;6.536;2023-05-08T11:41:22;22.80;99.90
52034;DHT22;38045;52.988;6.536;2023-05-08T11:46:22;22.90;99.90
52034;DHT22;38045;52.988;6.536;2023-05-08T11:48:48;22.90;99.90
52034;DHT22;38045;52.988;6.536;2023-05-08T11:51:16;23.10;99.90
52034;DHT22;38045;52.988;6.536;2023-05-08T11:53:43;23.40;99.90
52034;DHT22;38045;52.988;6.536;2023-05-08T11:56:08;23.30;99.90
52034;DHT22;38045;52.988;6.536;2023-05-08T11:58:34;22.70;99.90
52034;DHT22;38045;52.988;6.536;2023-05-08T12:01:01;22.70;99.90
52034;DHT22;38045;52.988;6.536;2023-05-08T12:03:27;22.80;99.90
52034;DHT22;38045;52.988;6.536;2023-05-08T12:05:57;23.20;99.90
52034;DHT22;38045;52.988;6.536;2023-05-08T12:08:23;23.20;99.90
52034;DHT22;38045;52.988;6.536;2023-05-08T12:10:53;23.10;99.90
52034;DHT22;38045;52.988;6.536;2023-05-08T12:13:27;23.20;99.90
52034;DHT22;38045;52.988;6.536;2023-05-08T12:15:58;23.50;99.90
52034;DHT22;38045;52.988;6.536;2023-05-08T12:18:26;23.50;99.90
52034;DHT22;38045;52.988;6.536;2023-05-08T12:20:57;23.50;99.90
52034;DHT22;38045;52.988;6.536;2023-05-08T12:23:27;23.40;99.90
52034;DHT22;38045;52.988;6.536;2023-05-08T12:25:54;23.50;99.90
52034;DHT22;38045;52.988;6.536;2023-05-08T12:28:23;23.80;99.90
52034;DHT22;38045;52.988;6.536;2023-05-08T12:30:48;24.10;99.90
52034;DHT22;38045;52.988;6.536;2023-05-08T12:33:15;24.20;99.90
52034;DHT22;38045;52.988;6.536;2023-05-08T12:35:40;24.20;99.90
52034;DHT22;38045;52.988;6.536;2023-05-08T12:38:07;24.00;99.90
52034;DHT22;38045;52.988;6.536;2023-05-08T12:40:44;23.90;99.90
52034;DHT22;38045;52.988;6.536;2023-05-08T12:43:09;23.80;99.90
52034;DHT22;38045;52.988;6.536;2023-05-08T12:45:37;23.70;99.90
52034;DHT22;38045;52.988;6.536;2023-05-08T12:48:08;23.40;99.90
52034;DHT22;38045;52.988;6.536;2023-05-08T12:50:39;23.20;99.90
52034;DHT22;38045;52.988;6.536;2023-05-08T12:53:12;23.10;99.90
52034;DHT22;38045;52.988;6.536;2023-05-08T12:55:40;23.10;99.90
52034;DHT22;38045;52.988;6.536;2023-05-08T12:58:16;23.20;99.90
52034;DHT22;38045;52.988;6.536;2023-05-08T13:00:46;23.00;99.90
52034;DHT22;38045;52.988;6.536;2023-05-08T13:03:20;22.90;99.90
52034;DHT22;38045;52.988;6.536;2023-05-08T13:05:45;23.00;99.90
52034;DHT22;38045;52.988;6.536;2023-05-08T13:08:11;23.10;99.90
52034;DHT22;38045;52.988;6.536;2023-05-08T13:10:46;23.00;99.90
52034;DHT22;38045;52.988;6.536;2023-05-08T13:13:14;23.30;99.90
52034;DHT22;38045;52.988;6.536;2023-05-08T13:15:40;23.30;99.90
52034;DHT22;38045;52.988;6.536;2023-05-08T13:18:05;23.40;99.90
52034;DHT22;38045;52.988;6.536;2023-05-08T13:20:35;23.50;99.90
52034;DHT22;38045;52.988;6.536;2023-05-08T13:23:02;23.70;99.90
52034;DHT22;38045;52.988;6.536;2023-05-08T13:25:29;23.80;99.90
52034;DHT22;38045;52.988;6.536;2023-05-08T13:27:54;23.80;99.90
52034;DHT22;38045;52.988;6.536;2023-05-08T13:30:21;23.80;99.90
52034;DHT22;38045;52.988;6.536;2023-05-08T13:32:48;23.70;99.90
52034;DHT22;38045;52.988;6.536;2023-05-08T13:35:13;23.60;99.90
52034;DHT22;38045;52.988;6.536;2023-05-08T13:37:39;23.50;99.90
52034;DHT22;38045;52.988;6.536;2023-05-08T13:40:05;23.40;99.90
52034;DHT22;38045;52.988;6.536;2023-05-08T13:42:31;23.30;99.90
52034;DHT22;38045;52.988;6.536;2023-05-08T13:44:56;23.20;99.90
52034;DHT22;38045;52.988;6.536;2023-05-08T13:47:22;23.20;99.90
52034;DHT22;38045;52.988;6.536;2023-05-08T13:49:47;23.20;99.90
52034;DHT22;38045;52.988;6.536;2023-05-08T13:52:15;23.20;99.90
52034;DHT22;38045;52.988;6.536;2023-05-08T13:54:40;23.20;99.90
52034;DHT22;38045;52.988;6.536;2023-05-08T13:57:06;23.20;99.90
52034;DHT22;38045;52.988;6.536;2023-05-08T13:59:32;23.20;99.90
52034;DHT22;38045;52.988;6.536;2023-05-08T14:02:01;23.20;99.90
52034;DHT22;38045;52.988;6.536;2023-05-08T14:04:27;23.40;99.90
52034;DHT22;38045;52.988;6.536;2023-05-08T14:06:52;23.60;99.90
52034;DHT22;38045;52.988;6.536;2023-05-08T14:09:18;23.70;99.90
52034;DHT22;38045;52.988;6.536;2023-05-08T14:11:44;23.90;99.90
52034;DHT22;38045;52.988;6.536;2023-05-08T14:14:09;24.10;99.90
52034;DHT22;38045;52.988;6.536;2023-05-08T14:16:35;24.20;99.90
52034;DHT22;38045;52.988;6.536;2023-05-08T14:19:00;24.30;99.90
52034;DHT22;38045;52.988;6.536;2023-05-08T14:21:26;24.10;99.90
52034;DHT22;38045;52.988;6.536;2023-05-08T14:23:52;23.70;99.90
52034;DHT22;38045;52.988;6.536;2023-05-08T14:26:18;23.60;99.90
52034;DHT22;38045;52.988;6.536;2023-05-08T14:28:44;23.50;99.90
52034;DHT22;38045;52.988;6.536;2023-05-08T14:31:10;23.40;99.90
52034;DHT22;38045;52.988;6.536;2023-05-08T14:33:35;23.20;99.90
52034;DHT22;38045;52.988;6.536;2023-05-08T14:36:01;23.00;99.90
52034;DHT22;38045;52.988;6.536;2023-05-08T14:38:27;22.80;99.90
52034;DHT22;38045;52.988;6.536;2023-05-08T14:40:52;22.70;99.90
52034;DHT22;38045;52.988;6.536;2023-05-08T14:43:22;22.70;99.90
52034;DHT22;38045;52.988;6.536;2023-05-08T14:45:47;22.70;99.90
52034;DHT22;38045;52.988;6.536;2023-05-08T14:48:13;22.70;99.90
52034;DHT22;38045;52.988;6.536;2023-05-08T14:50:39;22.70;99.90
52034;DHT22;38045;52.988;6.536;2023-05-08T14:53:04;22.70;99.90
52034;DHT22;38045;52.988;6.536;2023-05-08T14:55:30;22.80;99.90
52034;DHT22;38045;52.988;6.536;2023-05-08T14:57:56;22.80;99.90
52034;DHT22;38045;52.988;6.536;2023-05-08T15:00:22;22.70;99.90
52034;DHT22;38045;52.988;6.536;2023-05-08T15:02:48;22.60;99.90
52034;DHT22;38045;52.988;6.536;2023-05-08T15:05:14;22.50;99.90
52034;DHT22;38045;52.988;6.536;2023-05-08T15:09:43;22.40;99.90
52034;DHT22;38045;52.988;6.536;2023-05-08T15:12:09;22.10;99.90
52034;DHT22;38045;52.988;6.536;2023-05-08T15:14:35;21.90;99.90
52034;DHT22;38045;52.988;6.536;2023-05-08T15:17:00;21.60;99.90
52034;DHT22;38045;52.988;6.536;2023-05-08T15:19:26;21.40;99.90
52034;DHT22;38045;52.988;6.536;2023-05-08T15:21:51;21.20;99.90
52034;DHT22;38045;52.988;6.536;2023-05-08T15:24:17;20.90;99.90
52034;DHT22;38045;52.988;6.536;2023-05-08T15:26:43;20.60;99.90
52034;DHT22;38045;52.988;6.536;2023-05-08T15:29:08;20.50;99.90
52034;DHT22;38045;52.988;6.536;2023-05-08T15:31:34;20.30;99.90
52034;DHT22;38045;52.988;6.536;2023-05-08T15:33:59;20.10;99.90
52034;DHT22;38045;52.988;6.536;2023-05-08T15:36:25;20.10;99.90
52034;DHT22;38045;52.988;6.536;2023-05-08T15:38:51;20.00;99.90
52034;DHT22;38045;52.988;6.536;2023-05-08T15:41:18;19.90;99.90
52034;DHT22;38045;52.988;6.536;2023-05-08T15:43:44;19.80;99.90
52034;DHT22;38045;52.988;6.536;2023-05-08T15:46:10;19.50;99.90
52034;DHT22;38045;52.988;6.536;2023-05-08T15:48:36;19.10;99.90
52034;DHT22;38045;52.988;6.536;2023-05-08T15:51:01;18.90;99.90
52034;DHT22;38045;52.988;6.536;2023-05-08T15:53:27;18.60;99.90
52034;DHT22;38045;52.988;6.536;2023-05-08T15:55:53;18.40;99.90
52034;DHT22;38045;52.988;6.536;2023-05-08T15:58:20;18.20;99.90
52034;DHT22;38045;52.988;6.536;2023-05-08T16:00:45;17.90;99.90
52034;DHT22;38045;52.988;6.536;2023-05-08T16:03:11;17.80;99.90
52034;DHT22;38045;52.988;6.536;2023-05-08T16:05:36;17.70;99.90
52034;DHT22;38045;52.988;6.536;2023-05-08T16:08:03;17.60;99.90
52034;DHT22;38045;52.988;6.536;2023-05-08T16:10:30;17.60;99.90